createdAt,value
2022-09-23T00:01:03.624Z,32.16
2022-09-23T00:03:36.530Z,32.16
2022-09-23T00:06:11.360Z,32.15
2022-09-23T00:08:42.709Z,32.14
2022-09-23T00:11:16.963Z,32.12
2022-09-23T00:13:50.430Z,32.11
2022-09-23T00:16:25.663Z,32.06
2022-09-23T00:18:56.154Z,32.03
2022-09-23T00:21:28.104Z,32.01
2022-09-23T00:23:58.879Z,31.98
2022-09-23T00:26:30.214Z,31.98
2022-09-23T00:29:01.123Z,31.97
2022-09-23T00:31:34.099Z,31.98
2022-09-23T00:34:05.072Z,31.98
2022-09-23T00:36:36.156Z,32.00
2022-09-23T00:39:07.221Z,32.01
2022-09-23T00:41:39.414Z,32.03
2022-09-23T00:44:48.214Z,32.00
2022-09-23T00:47:27.671Z,31.95
2022-09-23T00:50:09.773Z,31.92
2022-09-23T00:52:42.055Z,31.88
2022-09-23T00:55:20.430Z,31.88
2022-09-23T00:57:51.452Z,31.86
2022-09-23T01:00:22.821Z,31.85
2022-09-23T01:02:55.540Z,31.87
2022-09-23T01:05:26.877Z,31.86
2022-09-23T01:07:59.404Z,31.86
2022-09-23T01:10:45.622Z,31.88
2022-09-23T01:13:29.600Z,31.88
2022-09-23T01:16:11.422Z,31.89
2022-09-23T01:18:56.017Z,31.89
2022-09-23T01:21:48.796Z,31.91
2022-09-23T01:25:06.874Z,31.90
2022-09-23T01:28:06.140Z,31.91
2022-09-23T01:30:50.971Z,31.92
2022-09-23T01:33:34.157Z,31.94
2022-09-23T01:36:19.577Z,31.95
2022-09-23T01:39:02.091Z,31.96
2022-09-23T01:41:53.001Z,31.97
2022-09-23T01:44:33.844Z,31.96
2022-09-23T01:47:14.612Z,31.97
2022-09-23T01:49:56.272Z,31.97
2022-09-23T01:52:37.666Z,31.97
2022-09-23T01:55:18.862Z,31.97
2022-09-23T01:57:59.870Z,31.96
2022-09-23T02:00:41.450Z,31.95
2022-09-23T02:03:21.973Z,31.93
2022-09-23T02:06:00.353Z,31.93
2022-09-23T02:08:39.586Z,31.93
2022-09-23T02:11:14.257Z,31.91
2022-09-23T02:13:53.342Z,31.90
2022-09-23T02:16:32.855Z,31.87
2022-09-23T02:19:13.456Z,31.86
2022-09-23T02:21:49.651Z,31.86
2022-09-23T02:24:25.160Z,31.85
2022-09-23T02:27:06.639Z,31.84
2022-09-23T02:29:51.323Z,31.83
2022-09-23T02:32:30.401Z,31.80
2022-09-23T02:35:16.191Z,31.79
2022-09-23T02:37:55.037Z,31.78
2022-09-23T02:40:34.960Z,31.76
2022-09-23T02:43:13.445Z,31.75
2022-09-23T02:45:45.523Z,31.76
2022-09-23T02:48:31.929Z,31.77
2022-09-23T02:51:05.175Z,31.77
2022-09-23T02:53:37.779Z,31.77
2022-09-23T02:56:19.966Z,31.78
2022-09-23T02:58:52.549Z,31.77
2022-09-23T03:01:41.261Z,31.75
2022-09-23T03:04:21.255Z,31.75
2022-09-23T03:07:06.634Z,31.73
2022-09-23T03:09:44.585Z,31.74
2022-09-23T03:12:25.591Z,31.72
2022-09-23T03:15:08.142Z,31.72
2022-09-23T03:17:47.362Z,31.71
2022-09-23T03:20:31.644Z,31.70
2022-09-23T03:23:09.603Z,31.70
2022-09-23T03:25:46.688Z,31.68
2022-09-23T03:28:22.595Z,31.64
2022-09-23T03:30:55.615Z,31.62
2022-09-23T03:33:30.651Z,31.61
2022-09-23T03:36:23.613Z,31.58
2022-09-23T03:39:04.432Z,31.52
2022-09-23T03:41:41.307Z,31.46
2022-09-23T03:44:13.629Z,31.43
2022-09-23T03:46:50.963Z,31.42
2022-09-23T03:49:30.456Z,31.42
2022-09-23T03:52:03.141Z,31.39
2022-09-23T03:54:36.612Z,31.41
2022-09-23T03:57:07.954Z,31.40
2022-09-23T03:59:37.948Z,31.39
2022-09-23T04:02:09.621Z,31.39
2022-09-23T04:04:42.029Z,31.39
2022-09-23T04:07:14.060Z,31.38
2022-09-23T04:09:46.791Z,31.40
2022-09-23T04:12:19.519Z,31.39
2022-09-23T04:14:50.590Z,31.39
2022-09-23T04:17:21.244Z,31.40
2022-09-23T04:19:51.966Z,31.41
2022-09-23T04:22:22.933Z,31.44
2022-09-23T04:24:56.788Z,31.48
2022-09-23T04:27:27.551Z,31.52
2022-09-23T04:29:58.228Z,31.56
2022-09-23T04:32:29.988Z,31.60
2022-09-23T04:35:00.197Z,31.63
2022-09-23T04:37:31.149Z,31.67
2022-09-23T04:40:04.987Z,31.71
2022-09-23T04:42:35.385Z,31.75
2022-09-23T04:45:06.276Z,31.79
2022-09-23T04:47:37.375Z,31.84
2022-09-23T04:50:08.509Z,31.89
2022-09-23T04:52:39.957Z,31.93
2022-09-23T04:55:14.613Z,31.98
2022-09-23T04:57:45.380Z,32.02
2022-09-23T05:00:18.395Z,32.08
2022-09-23T05:02:51.189Z,32.12
2022-09-23T05:05:24.241Z,32.18
2022-09-23T05:07:58.567Z,32.25
2022-09-23T05:10:31.850Z,32.31
2022-09-23T05:13:02.098Z,32.36
2022-09-23T05:15:32.920Z,32.42
2022-09-23T05:18:03.495Z,32.47
2022-09-23T05:20:34.371Z,32.54
2022-09-23T05:23:05.269Z,32.59
2022-09-23T05:25:38.404Z,32.63
2022-09-23T05:28:09.881Z,32.67
2022-09-23T05:30:40.313Z,32.73
2022-09-23T05:33:11.459Z,32.80
2022-09-23T05:35:42.337Z,32.86
2022-09-23T05:38:12.197Z,32.93
2022-09-23T05:40:44.875Z,32.99
2022-09-23T05:43:15.623Z,33.04
2022-09-23T05:45:46.489Z,33.09
2022-09-23T05:48:17.255Z,33.11
2022-09-23T05:50:53.675Z,33.13
2022-09-23T05:53:23.826Z,33.15
2022-09-23T05:55:57.103Z,33.19
2022-09-23T05:58:28.907Z,33.19
2022-09-23T06:00:59.157Z,33.20
2022-09-23T06:03:29.614Z,33.23
2022-09-23T06:06:00.026Z,33.27
2022-09-23T06:08:30.348Z,33.30
2022-09-23T06:11:10.927Z,33.37
2022-09-23T06:13:43.334Z,33.43
2022-09-23T06:16:15.546Z,33.51
2022-09-23T06:18:47.496Z,33.58
2022-09-23T06:21:20.415Z,33.64
2022-09-23T06:23:53.735Z,33.70
2022-09-23T06:26:34.249Z,33.77
2022-09-23T06:29:06.662Z,33.83
2022-09-23T06:31:37.679Z,33.90
2022-09-23T06:34:12.184Z,33.98
2022-09-23T06:36:46.205Z,34.07
2022-09-23T06:39:18.506Z,34.17
2022-09-23T06:41:50.867Z,34.25
2022-09-23T06:44:21.632Z,34.34
2022-09-23T06:46:53.994Z,34.44
2022-09-23T06:49:24.749Z,34.52
2022-09-23T06:51:56.519Z,34.62
2022-09-23T06:54:28.876Z,34.71
2022-09-23T06:57:01.909Z,34.79
2022-09-23T06:59:32.614Z,34.83
2022-09-23T07:02:03.698Z,34.88
2022-09-23T07:04:34.588Z,34.93
2022-09-23T07:07:05.501Z,34.98
2022-09-23T07:09:35.758Z,35.06
2022-09-23T07:12:09.055Z,35.15
2022-09-23T07:14:39.353Z,35.21
2022-09-23T07:17:09.654Z,35.28
2022-09-23T07:19:40.876Z,35.35
2022-09-23T07:22:11.444Z,35.42
2022-09-23T07:24:42.188Z,35.49
2022-09-23T07:27:17.089Z,35.55
2022-09-23T07:29:48.963Z,35.58
2022-09-23T07:32:20.103Z,35.64
2022-09-23T07:34:51.592Z,35.71
2022-09-23T07:37:22.167Z,35.75
2022-09-23T07:39:54.154Z,35.77
2022-09-23T07:42:26.911Z,35.81
2022-09-23T07:44:57.777Z,35.84
2022-09-23T07:47:28.583Z,35.89
2022-09-23T07:49:58.807Z,35.93
2022-09-23T07:52:29.611Z,35.98
2022-09-23T07:55:00.481Z,36.03
2022-09-23T07:57:33.341Z,36.09
2022-09-23T08:00:05.025Z,36.13
2022-09-23T08:02:36.464Z,36.19
2022-09-23T08:05:07.924Z,36.24
2022-09-23T08:07:38.358Z,36.28
2022-09-23T08:10:10.946Z,36.31
2022-09-23T08:12:42.988Z,36.32
2022-09-23T08:15:19.955Z,36.37
2022-09-23T08:17:50.846Z,36.39
2022-09-23T08:20:34.567Z,36.43
2022-09-23T08:23:04.834Z,36.47
2022-09-23T08:25:35.592Z,36.50
2022-09-23T08:28:08.557Z,36.55
2022-09-23T08:30:41.267Z,36.58
2022-09-23T08:33:11.521Z,36.59
2022-09-23T08:35:41.736Z,36.60
2022-09-23T08:38:12.489Z,36.61
2022-09-23T08:40:47.769Z,36.63
2022-09-23T08:43:29.044Z,36.64
2022-09-23T08:46:07.740Z,36.62
2022-09-23T08:48:46.916Z,36.60
2022-09-23T08:51:24.807Z,36.59
2022-09-23T08:53:56.434Z,36.59
2022-09-23T08:56:28.014Z,36.59
2022-09-23T08:59:09.327Z,36.60
2022-09-23T09:01:47.198Z,36.59
2022-09-23T09:04:25.000Z,36.55
2022-09-23T09:07:24.566Z,36.52
2022-09-23T09:10:02.392Z,36.48
2022-09-23T09:12:44.289Z,36.50
2022-09-23T09:15:24.662Z,36.51
2022-09-23T09:18:04.481Z,36.54
2022-09-23T09:20:43.718Z,36.58
2022-09-23T09:23:25.519Z,36.63
2022-09-23T09:26:01.628Z,36.63
2022-09-23T09:28:40.606Z,36.67
2022-09-23T09:31:30.551Z,36.71
2022-09-23T09:34:16.326Z,36.74
2022-09-23T09:36:55.961Z,36.76
2022-09-23T09:39:26.753Z,36.77
2022-09-23T09:41:59.144Z,36.78
2022-09-23T09:44:39.568Z,36.76
2022-09-23T09:47:33.296Z,36.70
2022-09-23T09:50:11.667Z,36.66
2022-09-23T09:52:43.719Z,36.65
2022-09-23T09:55:29.929Z,36.63
2022-09-23T09:58:04.875Z,36.60
2022-09-23T10:00:46.285Z,36.57
2022-09-23T10:03:46.443Z,36.54
2022-09-23T10:06:21.903Z,36.54
2022-09-23T10:09:16.276Z,36.55
2022-09-23T10:12:15.843Z,36.54
2022-09-23T10:14:52.394Z,36.53
2022-09-23T10:17:25.712Z,36.52
2022-09-23T10:20:05.423Z,36.51
2022-09-23T10:22:43.110Z,36.49
2022-09-23T10:25:25.057Z,36.51
2022-09-23T10:27:55.916Z,36.49
2022-09-23T10:30:30.204Z,36.47
2022-09-23T10:33:01.644Z,36.43
2022-09-23T10:35:34.891Z,36.42
2022-09-23T10:38:05.317Z,36.42
2022-09-23T10:40:57.167Z,36.41
2022-09-23T10:44:13.376Z,36.37
2022-09-23T10:46:55.997Z,36.35
2022-09-23T10:50:10.595Z,36.34
2022-09-23T10:53:05.523Z,36.32
2022-09-23T10:56:03.485Z,36.33
2022-09-23T10:59:00.528Z,36.31
2022-09-23T11:01:46.231Z,36.31
2022-09-23T11:05:09.145Z,36.30
2022-09-23T11:07:47.750Z,36.30
2022-09-23T11:11:19.373Z,36.30
2022-09-23T11:14:25.498Z,36.30
2022-09-23T11:17:39.028Z,36.30
2022-09-23T11:20:49.935Z,36.28
2022-09-23T11:24:00.182Z,36.29
2022-09-23T11:26:44.754Z,36.26
2022-09-23T11:29:58.312Z,36.22
2022-09-23T11:33:22.392Z,36.18
2022-09-23T11:35:58.791Z,36.17
2022-09-23T11:38:38.461Z,36.18
2022-09-23T11:41:21.009Z,36.20
2022-09-23T11:43:58.836Z,36.22
2022-09-23T11:46:40.675Z,36.19
2022-09-23T11:49:18.058Z,36.14
2022-09-23T11:52:04.702Z,36.11
2022-09-23T11:54:46.550Z,36.08
2022-09-23T11:57:46.199Z,36.06
2022-09-23T12:00:23.855Z,36.03
2022-09-23T12:03:10.919Z,36.01
2022-09-23T12:05:48.988Z,35.98
2022-09-23T12:08:29.988Z,35.95
2022-09-23T12:11:12.757Z,35.95
2022-09-23T12:13:57.138Z,35.94
2022-09-23T12:17:08.937Z,35.91
2022-09-23T12:20:32.335Z,35.88
2022-09-23T12:23:28.731Z,35.83
2022-09-23T12:26:02.683Z,35.81
2022-09-23T12:28:40.254Z,35.80
2022-09-23T12:31:16.177Z,35.80
2022-09-23T12:33:53.292Z,35.79
2022-09-23T12:36:35.939Z,35.80
2022-09-23T12:39:17.672Z,35.77
2022-09-23T12:41:52.153Z,35.69
2022-09-23T12:44:38.175Z,35.66
2022-09-23T12:47:41.961Z,35.62
2022-09-23T12:50:53.881Z,35.59
2022-09-23T12:54:00.227Z,35.56
2022-09-23T12:57:04.941Z,35.49
2022-09-23T13:00:00.986Z,35.47
2022-09-23T13:02:38.694Z,35.42
2022-09-23T13:05:49.323Z,35.38
2022-09-23T13:08:23.341Z,35.30
2022-09-23T13:11:00.106Z,35.27
2022-09-23T13:13:38.477Z,35.24
2022-09-23T13:16:23.509Z,35.23
2022-09-23T13:18:55.213Z,35.21
2022-09-23T13:22:09.496Z,35.16
2022-09-23T13:24:47.280Z,35.13
2022-09-23T13:27:29.988Z,35.08
2022-09-23T13:30:08.370Z,35.04
2022-09-23T13:32:46.808Z,34.98
2022-09-23T13:35:28.821Z,34.96
2022-09-23T13:37:59.460Z,34.92
2022-09-23T13:40:33.156Z,34.90
2022-09-23T13:43:08.885Z,34.86
2022-09-23T13:45:44.611Z,34.82
2022-09-23T13:48:17.892Z,34.77
2022-09-23T13:50:53.755Z,34.73
2022-09-23T13:53:30.939Z,34.72
2022-09-23T13:56:10.504Z,34.72
2022-09-23T13:58:40.920Z,34.71
2022-09-23T14:01:25.032Z,34.68
2022-09-23T14:03:55.701Z,34.65
2022-09-23T14:06:27.618Z,34.62
2022-09-23T14:08:59.358Z,34.57
2022-09-23T14:11:36.005Z,34.55
2022-09-23T14:14:07.642Z,34.53
2022-09-23T14:16:43.973Z,34.51
2022-09-23T14:19:20.938Z,34.49
2022-09-23T14:21:53.412Z,34.49
2022-09-23T14:24:26.330Z,34.49
2022-09-23T14:27:06.633Z,34.48
2022-09-23T14:29:40.645Z,34.45
2022-09-23T14:32:19.168Z,34.41
2022-09-23T14:34:53.803Z,34.39
2022-09-23T14:37:52.557Z,34.37
2022-09-23T14:40:27.593Z,34.33
2022-09-23T14:43:06.118Z,34.30
2022-09-23T14:45:40.097Z,34.29
2022-09-23T14:48:19.743Z,34.27
2022-09-23T14:50:54.124Z,34.24
2022-09-23T14:53:43.025Z,34.21
2022-09-23T14:56:20.780Z,34.20
2022-09-23T14:58:55.521Z,34.19
2022-09-23T15:01:38.292Z,34.20
2022-09-23T15:04:37.239Z,34.18
2022-09-23T15:07:24.765Z,34.17
2022-09-23T15:09:57.666Z,34.15
2022-09-23T15:12:30.365Z,34.15
2022-09-23T15:15:03.882Z,34.14
2022-09-23T15:17:41.015Z,34.14
2022-09-23T15:20:28.516Z,34.11
2022-09-23T15:23:01.272Z,34.08
2022-09-23T15:25:39.151Z,34.08
2022-09-23T15:28:28.610Z,34.07
2022-09-23T15:31:03.608Z,34.04
2022-09-23T15:33:41.486Z,34.00
2022-09-23T15:36:24.174Z,33.96
2022-09-23T15:38:59.936Z,33.93
2022-09-23T15:41:36.599Z,33.92
2022-09-23T15:44:16.244Z,33.90
2022-09-23T15:47:29.713Z,33.91
2022-09-23T15:50:17.878Z,33.87
2022-09-23T15:53:04.876Z,33.86
2022-09-23T15:55:37.704Z,33.84
2022-09-23T15:58:09.727Z,33.83
2022-09-23T16:00:42.289Z,33.84
2022-09-23T16:03:16.567Z,33.84
2022-09-23T16:05:48.545Z,33.85
2022-09-23T16:08:33.739Z,33.84
2022-09-23T16:11:07.996Z,33.82
2022-09-23T16:13:38.867Z,33.82
2022-09-23T16:16:16.857Z,33.83
2022-09-23T16:18:52.254Z,33.81
2022-09-23T16:21:29.252Z,33.81
2022-09-23T16:24:03.574Z,33.80
2022-09-23T16:26:41.465Z,33.78
2022-09-23T16:29:14.416Z,33.77
2022-09-23T16:31:48.511Z,33.76
2022-09-23T16:34:24.520Z,33.76
2022-09-23T16:36:55.282Z,33.74
2022-09-23T16:39:42.729Z,33.73
2022-09-23T16:42:17.762Z,33.72
2022-09-23T16:44:50.724Z,33.70
2022-09-23T16:47:24.597Z,33.69
2022-09-23T16:49:55.653Z,33.68
2022-09-23T16:52:26.815Z,33.65
2022-09-23T16:55:01.351Z,33.65
2022-09-23T16:57:32.670Z,33.63
2022-09-23T17:00:28.349Z,33.61
2022-09-23T17:03:16.335Z,33.59
2022-09-23T17:05:50.820Z,33.57
2022-09-23T17:08:27.833Z,33.56
2022-09-23T17:11:05.918Z,33.55
2022-09-23T17:13:37.503Z,33.53
2022-09-23T17:16:13.668Z,33.53
2022-09-23T17:18:45.386Z,33.54
2022-09-23T17:21:16.203Z,33.51
2022-09-23T17:23:51.644Z,33.51
2022-09-23T17:26:26.223Z,33.50
2022-09-23T17:29:00.983Z,33.48
2022-09-23T17:31:34.423Z,33.45
2022-09-23T17:34:05.898Z,33.45
2022-09-23T17:36:36.274Z,33.45
2022-09-23T17:39:09.353Z,33.44
2022-09-23T17:41:46.170Z,33.44
2022-09-23T17:44:34.483Z,33.42
2022-09-23T17:47:08.671Z,33.41
2022-09-23T17:49:39.829Z,33.40
2022-09-23T17:52:11.374Z,33.40
2022-09-23T17:54:42.231Z,33.40
2022-09-23T17:57:15.923Z,33.41
2022-09-23T17:59:51.281Z,33.40
2022-09-23T18:02:23.177Z,33.38
2022-09-23T18:04:55.112Z,33.37
2022-09-23T18:07:39.963Z,33.36
2022-09-23T18:10:13.214Z,33.33
2022-09-23T18:12:50.448Z,33.34
2022-09-23T18:15:25.931Z,33.31
2022-09-23T18:17:59.583Z,33.30
2022-09-23T18:20:36.006Z,33.29
2022-09-23T18:23:07.724Z,33.28
2022-09-23T18:25:39.797Z,33.28
2022-09-23T18:28:13.803Z,33.27
2022-09-23T18:30:54.152Z,33.27
2022-09-23T18:33:43.775Z,33.28
2022-09-23T18:36:18.857Z,33.26
2022-09-23T18:38:55.449Z,33.25
2022-09-23T18:41:28.092Z,33.24
2022-09-23T18:44:05.823Z,33.25
2022-09-23T18:46:37.114Z,33.26
2022-09-23T18:49:25.473Z,33.26
2022-09-23T18:52:00.723Z,33.23
2022-09-23T18:54:33.296Z,33.23
2022-09-23T18:57:04.851Z,33.23
2022-09-23T18:59:43.546Z,33.22
2022-09-23T19:02:18.182Z,33.22
2022-09-23T19:04:56.762Z,33.21
2022-09-23T19:07:34.666Z,33.21
2022-09-23T19:10:06.400Z,33.21
2022-09-23T19:12:39.263Z,33.21
2022-09-23T19:15:15.037Z,33.20
2022-09-23T19:18:00.794Z,33.20
2022-09-23T19:20:35.050Z,33.18
2022-09-23T19:23:12.885Z,33.17
2022-09-23T19:25:45.458Z,33.16
2022-09-23T19:28:20.324Z,33.14
2022-09-23T19:30:59.027Z,33.14
2022-09-23T19:33:30.990Z,33.14
2022-09-23T19:36:02.753Z,33.15
2022-09-23T19:38:37.078Z,33.14
2022-09-23T19:41:12.694Z,33.14
2022-09-23T19:43:46.938Z,33.14
2022-09-23T19:46:20.457Z,33.14
2022-09-23T19:48:50.535Z,33.12
2022-09-23T19:51:21.690Z,33.12
2022-09-23T19:53:53.743Z,33.11
2022-09-23T19:56:28.073Z,33.11
2022-09-23T19:59:02.682Z,33.10
2022-09-23T20:01:39.444Z,33.09
2022-09-23T20:04:09.790Z,33.07
2022-09-23T20:06:45.059Z,33.07
2022-09-23T20:09:18.197Z,33.05
2022-09-23T20:11:52.551Z,33.05
2022-09-23T20:14:25.870Z,33.05
2022-09-23T20:16:58.933Z,33.04
2022-09-23T20:19:32.543Z,33.04
2022-09-23T20:22:33.212Z,33.04
2022-09-23T20:25:05.196Z,33.03
2022-09-23T20:27:35.376Z,33.03
2022-09-23T20:30:06.882Z,33.03
2022-09-23T20:32:44.531Z,33.03
2022-09-23T20:35:16.790Z,33.01
2022-09-23T20:37:49.646Z,33.01
2022-09-23T20:40:23.762Z,33.01
2022-09-23T20:42:56.323Z,33.02
2022-09-23T20:45:27.168Z,33.01
2022-09-23T20:48:01.080Z,33.00
2022-09-23T20:50:33.921Z,32.99
2022-09-23T20:53:06.425Z,32.97
2022-09-23T20:55:40.409Z,32.97
2022-09-23T20:58:12.949Z,32.97
2022-09-23T21:00:43.913Z,32.96
2022-09-23T21:03:20.749Z,32.97
2022-09-23T21:05:54.411Z,32.97
2022-09-23T21:08:29.394Z,32.95
2022-09-23T21:11:02.645Z,32.94
2022-09-23T21:13:35.594Z,32.93
2022-09-23T21:16:09.318Z,32.92
2022-09-23T21:18:45.876Z,32.91
2022-09-23T21:21:19.900Z,32.91
2022-09-23T21:23:52.410Z,32.90
2022-09-23T21:26:27.167Z,32.89
2022-09-23T21:29:05.225Z,32.89
2022-09-23T21:31:39.122Z,32.87
2022-09-23T21:34:15.010Z,32.88
2022-09-23T21:36:50.796Z,32.84
2022-09-23T21:39:22.824Z,32.86
2022-09-23T21:41:55.874Z,32.86
2022-09-23T21:44:27.401Z,32.85
2022-09-23T21:46:58.434Z,32.83
2022-09-23T21:49:33.731Z,32.83
2022-09-23T21:52:05.752Z,32.81
2022-09-23T21:54:40.690Z,32.79
2022-09-23T21:57:12.657Z,32.79
2022-09-23T21:59:44.766Z,32.78
2022-09-23T22:02:16.289Z,32.76
2022-09-23T22:04:52.003Z,32.74
2022-09-23T22:07:23.734Z,32.71
2022-09-23T22:09:55.903Z,32.71
2022-09-23T22:12:27.469Z,32.70
2022-09-23T22:15:01.120Z,32.70
2022-09-23T22:17:33.512Z,32.67
2022-09-23T22:20:06.735Z,32.68
2022-09-23T22:22:37.110Z,32.67
2022-09-23T22:25:08.761Z,32.68
2022-09-23T22:27:59.374Z,32.67
2022-09-23T22:30:46.005Z,32.66
2022-09-23T22:33:18.647Z,32.65
2022-09-23T22:35:50.232Z,32.65
2022-09-23T22:38:21.240Z,32.65
2022-09-23T22:40:51.721Z,32.64
2022-09-23T22:43:22.312Z,32.63
2022-09-23T22:45:53.108Z,32.63
2022-09-23T22:48:22.893Z,32.63
2022-09-23T22:50:56.133Z,32.63
2022-09-23T22:53:26.268Z,32.63
2022-09-23T22:56:03.222Z,32.63
2022-09-23T22:58:33.606Z,32.62
2022-09-23T23:01:04.186Z,32.63
2022-09-23T23:03:35.495Z,32.62
2022-09-23T23:06:09.450Z,32.62
2022-09-23T23:08:40.682Z,32.60
2022-09-23T23:11:11.928Z,32.60
2022-09-23T23:13:43.191Z,32.60
2022-09-23T23:16:14.972Z,32.61
2022-09-23T23:18:45.871Z,32.62
2022-09-23T23:21:21.561Z,32.60
2022-09-23T23:23:54.031Z,32.59
2022-09-23T23:26:26.960Z,32.59
2022-09-23T23:28:57.698Z,32.58
2022-09-23T23:31:32.367Z,32.58
2022-09-23T23:34:02.697Z,32.57
2022-09-23T23:36:34.853Z,32.56
2022-09-23T23:39:05.666Z,32.55
2022-09-23T23:41:36.843Z,32.53
2022-09-23T23:44:07.478Z,32.51
2022-09-23T23:46:38.674Z,32.50
2022-09-23T23:49:09.373Z,32.48
2022-09-23T23:51:41.824Z,32.49
2022-09-23T23:54:15.621Z,32.48
2022-09-23T23:56:46.455Z,32.47
2022-09-23T23:59:20.108Z,32.46
